Time;durP1;ratioP1;P1;durP2;ratioP2;P2;SDS_P1;SDS_P2;PMS_P1;PMS_P2;Temp;Humidity;BMP_temperature;BMP_pressure;BME280_temperature;BME280_humidity;BME280_pressure;Samples;Min_cycle;Max_cycle;Signal;HPM_P1;HPM_P2
2022/09/19 00:01:15;;;;;;;1.75;0.70;;;;;;;7.73;100.00;97690.66;2621361;28;20502;-76
2022/09/19 00:02:31;;;;;;;0.85;0.60;;;;;;;7.81;100.00;97692.19;2620026;28;20100;-76
2022/09/19 00:03:55;;;;;;;1.92;0.52;;;;;;;7.97;100.00;97700.41;2619564;28;20045;-77
2022/09/19 00:05:11;;;;;;;0.57;0.50;;;;;;;7.99;100.00;97686.44;2621446;28;20041;-77
2022/09/19 00:06:28;;;;;;;3.47;0.70;;;;;;;7.81;100.00;97687.84;2618760;28;20051;-77
2022/09/19 00:07:47;;;;;;;1.70;0.40;;;;;;;7.82;100.00;97693.88;2618621;28;20051;-76
2022/09/19 00:09:05;;;;;;;1.20;0.63;;;;;;;7.91;100.00;97694.50;2620866;28;20053;-81
2022/09/19 00:10:21;;;;;;;2.38;0.60;;;;;;;8.06;100.00;97703.59;2621649;28;20483;-77
2022/09/19 00:11:39;;;;;;;1.63;0.70;;;;;;;8.03;100.00;97703.69;2622137;28;20087;-76
2022/09/19 00:12:55;;;;;;;0.57;0.40;;;;;;;7.89;100.00;97696.31;2619831;28;20517;-80
2022/09/19 00:14:13;;;;;;;1.85;0.55;;;;;;;7.97;100.00;97698.69;2619991;28;20056;-76
2022/09/19 00:15:30;;;;;;;3.25;0.60;;;;;;;8.05;100.00;97698.44;2620527;28;20472;-76
2022/09/19 00:16:46;;;;;;;0.95;0.70;;;;;;;7.97;100.00;97693.47;2619223;28;20102;-76
2022/09/19 00:18:03;;;;;;;1.17;0.50;;;;;;;7.79;100.00;97700.06;2620937;28;20061;-76
2022/09/19 00:19:19;;;;;;;0.95;0.50;;;;;;;7.81;100.00;97703.47;2621711;28;20051;-77
2022/09/19 00:20:39;;;;;;;1.05;0.40;;;;;;;7.89;100.00;97705.84;2621677;28;20059;-78
2022/09/19 00:22:00;;;;;;;2.03;0.50;;;;;;;7.78;100.00;97700.97;2623473;28;20044;-77
2022/09/19 00:24:50;;;;;;;1.90;0.80;;;;;;;7.99;100.00;97696.00;2620110;28;20052;-78
2022/09/19 00:26:10;;;;;;;0.85;0.43;;;;;;;7.99;100.00;97696.00;2621961;28;20048;-77
2022/09/19 00:27:26;;;;;;;2.17;0.50;;;;;;;7.93;100.00;97691.00;2621474;28;20053;-77
2022/09/19 00:28:44;;;;;;;1.05;0.60;;;;;;;8.02;100.00;97695.91;2619535;28;20055;-79
2022/09/19 00:29:59;;;;;;;0.85;0.60;;;;;;;8.03;100.00;97695.88;2622643;28;20039;-77
2022/09/19 00:31:17;;;;;;;1.10;0.52;;;;;;;8.15;100.00;97691.19;2622179;28;20064;-77
2022/09/19 00:32:33;;;;;;;1.38;0.50;;;;;;;7.86;100.00;97693.75;2621541;28;20048;-77
2022/09/19 00:33:50;;;;;;;1.25;0.43;;;;;;;8.06;100.00;97690.56;2622120;28;20456;-78
2022/09/19 00:35:07;;;;;;;2.22;0.65;;;;;;;7.87;100.00;97681.59;2621109;28;20419;-76
2022/09/19 00:36:23;;;;;;;1.67;0.65;;;;;;;7.70;100.00;97695.09;2620461;28;20049;-81
2022/09/19 00:37:39;;;;;;;0.38;0.38;;;;;;;7.77;100.00;97694.03;2619996;28;20052;-77
2022/09/19 00:38:55;;;;;;;2.13;0.40;;;;;;;7.81;100.00;97695.66;2620056;28;20286;-76
2022/09/19 00:40:10;;;;;;;1.48;0.93;;;;;;;7.75;100.00;97691.47;2619987;28;20499;-77
2022/09/19 00:41:26;;;;;;;0.45;0.35;;;;;;;7.77;100.00;97697.47;2620449;28;20048;-77
2022/09/19 00:42:42;;;;;;;0.40;0.40;;;;;;;7.80;100.00;97693.06;2619715;28;20150;-77
2022/09/19 00:44:01;;;;;;;0.82;0.40;;;;;;;7.66;100.00;97691.72;2623378;28;20052;-77
2022/09/19 00:45:17;;;;;;;2.28;0.50;;;;;;;7.77;100.00;97686.22;2622563;28;20921;-77
2022/09/19 00:46:34;;;;;;;1.58;0.50;;;;;;;7.47;100.00;97686.16;2619821;28;20070;-78
2022/09/19 00:47:51;;;;;;;0.50;0.38;;;;;;;7.65;100.00;97687.41;2622985;28;20056;-77
2022/09/19 00:49:10;;;;;;;0.47;0.47;;;;;;;7.42;100.00;97686.31;2619717;28;20048;-77
2022/09/19 00:50:28;;;;;;;2.13;0.50;;;;;;;7.58;100.00;97688.50;2621964;28;20056;-77
2022/09/19 00:51:49;;;;;;;0.57;0.57;;;;;;;7.48;100.00;97693.94;2621350;28;20048;-77
2022/09/19 00:53:18;;;;;;;0.63;0.30;;;;;;;7.40;100.00;97688.09;2620015;28;20060;-78
2022/09/19 00:54:40;;;;;;;1.30;0.30;;;;;;;7.32;100.00;97690.06;2619213;28;20501;-77
2022/09/19 00:55:56;;;;;;;0.40;0.35;;;;;;;7.38;100.00;97689.88;2619376;28;20278;-77
2022/09/19 00:57:14;;;;;;;0.50;0.50;;;;;;;7.30;100.00;97694.47;2619807;28;20052;-77
2022/09/19 00:58:34;;;;;;;0.68;0.50;;;;;;;7.24;100.00;97692.88;2620488;28;20075;-78
2022/09/19 00:59:49;;;;;;;1.45;0.70;;;;;;;7.45;100.00;97691.44;2620610;28;20110;-76
2022/09/19 01:01:05;;;;;;;1.83;0.68;;;;;;;7.39;100.00;97690.75;2620134;28;20461;-77
2022/09/19 01:02:23;;;;;;;0.85;0.40;;;;;;;7.43;100.00;97693.25;2622575;28;20496;-77
2022/09/19 01:03:39;;;;;;;1.88;0.40;;;;;;;7.60;100.00;97689.31;2622032;28;20048;-77
2022/09/19 01:04:54;;;;;;;1.63;0.50;;;;;;;7.65;100.00;97690.00;2622736;28;20053;-77
2022/09/19 01:06:13;;;;;;;4.03;0.60;;;;;;;7.61;100.00;97696.22;2620937;28;20105;-77
2022/09/19 01:07:44;;;;;;;1.65;0.60;;;;;;;7.40;100.00;97693.28;2619493;28;20058;-78
2022/09/19 01:09:25;;;;;;;1.25;0.60;;;;;;;7.45;100.00;97696.66;2620218;28;20422;-76
2022/09/19 01:11:31;;;;;;;1.48;0.50;;;;;;;7.25;100.00;97699.78;2619681;28;20053;-76
2022/09/19 01:12:59;;;;;;;0.40;0.40;;;;;;;7.26;100.00;97701.50;2599997;28;20518;-76
2022/09/19 01:14:41;;;;;;;0.75;0.50;;;;;;;7.56;100.00;97692.91;2600027;28;20495;-76
2022/09/19 01:16:00;;;;;;;0.68;0.50;;;;;;;7.58;100.00;97697.16;2618268;28;20159;-76
2022/09/19 01:17:20;;;;;;;0.75;0.40;;;;;;;7.44;100.00;97697.53;2620903;28;20060;-76
2022/09/19 01:18:47;;;;;;;1.75;0.57;;;;;;;7.44;100.00;97694.06;2621992;28;20087;-79
2022/09/19 01:20:25;;;;;;;1.50;0.40;;;;;;;7.33;100.00;97692.63;2623044;28;20059;-76
2022/09/19 01:21:51;;;;;;;3.70;0.57;;;;;;;7.60;100.00;97686.69;2624101;28;20052;-77
2022/09/19 01:23:45;;;;;;;1.20;0.55;;;;;;;7.51;100.00;97694.75;2624056;28;20063;-77
2022/09/19 01:25:17;;;;;;;;;;;;;;;7.73;100.00;97695.00;2602299;28;20071;-77
2022/09/19 01:26:47;;;;;;;0.57;0.50;;;;;;;7.67;100.00;97693.44;2621884;28;19968;-76
2022/09/19 01:28:34;;;;;;;1.77;0.40;;;;;;;7.68;100.00;97697.75;2623966;28;20487;-76
2022/09/19 01:29:56;;;;;;;2.83;0.50;;;;;;;7.65;100.00;97692.63;2621985;28;20044;-78
2022/09/19 01:31:20;;;;;;;0.85;0.68;;;;;;;7.80;100.00;97699.16;2622170;28;20128;-75
2022/09/19 01:32:55;;;;;;;1.25;0.52;;;;;;;7.86;100.00;97685.09;2621265;28;20379;-76
2022/09/19 01:34:30;;;;;;;0.85;0.43;;;;;;;7.83;100.00;97693.03;2621428;28;20487;-76
2022/09/19 01:35:53;;;;;;;0.52;0.40;;;;;;;7.75;100.00;97688.88;2620865;28;20175;-76
2022/09/19 01:37:16;;;;;;;1.05;0.50;;;;;;;7.85;100.00;97686.84;2621658;28;20051;-77
2022/09/19 01:38:35;;;;;;;0.63;0.38;;;;;;;7.93;100.00;97683.16;2620818;28;20553;-76
2022/09/19 01:39:51;;;;;;;0.57;0.50;;;;;;;7.90;100.00;97690.19;2623083;28;20052;-77
2022/09/19 01:41:09;;;;;;;0.68;0.40;;;;;;;7.78;100.00;97688.78;2620950;28;20056;-76
2022/09/19 01:42:24;;;;;;;0.38;0.30;;;;;;;7.67;100.00;97688.22;2620738;28;20045;-77
2022/09/19 01:43:40;;;;;;;3.17;0.50;;;;;;;7.78;100.00;97687.94;2621214;28;20121;-76
2022/09/19 01:44:56;;;;;;;0.93;0.40;;;;;;;7.74;100.00;97681.94;2623562;28;20098;-77
2022/09/19 01:46:23;;;;;;;1.35;0.50;;;;;;;7.64;100.00;97690.91;2623961;28;20055;-78
2022/09/19 01:47:38;;;;;;;0.70;0.50;;;;;;;7.92;100.00;97679.69;2623062;28;20053;-77
2022/09/19 01:49:06;;;;;;;1.98;0.45;;;;;;;7.74;100.00;97678.47;2622824;28;20404;-76
2022/09/19 01:50:40;;;;;;;1.02;0.50;;;;;;;7.80;100.00;97683.53;2624558;28;20044;-76
2022/09/19 01:52:30;;;;;;;2.30;0.60;;;;;;;7.77;100.00;97683.63;2622455;28;20120;-78
2022/09/19 01:54:15;;;;;;;0.77;0.50;;;;;;;7.97;100.00;97683.03;2600706;28;20052;-78
2022/09/19 01:55:52;;;;;;;0.68;0.30;;;;;;;8.01;100.00;97684.66;2622123;28;20060;-76
2022/09/19 01:57:31;;;;;;;0.63;0.47;;;;;;;7.77;100.00;97684.47;2623056;28;21158;-77
2022/09/19 01:58:59;;;;;;;2.13;0.60;;;;;;;7.81;100.00;97685.22;2621537;28;20048;-77
2022/09/19 02:00:18;;;;;;;1.00;0.55;;;;;;;7.80;100.00;97680.06;2622828;28;20386;-77
2022/09/19 02:01:46;;;;;;;1.35;0.50;;;;;;;7.93;100.00;97681.41;2623567;28;20052;-77
2022/09/19 02:03:15;;;;;;;0.73;0.38;;;;;;;7.64;100.00;97693.53;2620700;28;20062;-77
2022/09/19 02:04:43;;;;;;;1.48;0.82;;;;;;;7.93;100.00;97684.00;2620679;28;20087;-77
2022/09/19 02:06:14;;;;;;;1.17;0.50;;;;;;;7.79;100.00;97681.81;2622967;28;20054;-78
2022/09/19 02:07:42;;;;;;;1.90;0.73;;;;;;;7.72;100.00;97677.66;2620543;28;20056;-76
2022/09/19 02:09:03;;;;;;;0.63;0.57;;;;;;;7.61;100.00;97684.06;2624248;28;20098;-78
2022/09/19 02:10:25;;;;;;;1.05;0.55;;;;;;;7.68;100.00;97681.28;2622546;28;20109;-76
2022/09/19 02:11:42;;;;;;;0.82;0.52;;;;;;;7.76;100.00;97680.16;2621131;28;20056;-77
2022/09/19 02:13:04;;;;;;;0.70;0.40;;;;;;;7.70;100.00;97677.72;2620795;28;20099;-77
2022/09/19 02:14:24;;;;;;;0.50;0.50;;;;;;;7.77;100.00;97681.00;2621264;28;20048;-78
2022/09/19 02:15:46;;;;;;;0.77;0.35;;;;;;;7.59;100.00;97682.38;2621463;28;20049;-77
2022/09/19 02:17:04;;;;;;;0.73;0.30;;;;;;;7.62;100.00;97683.16;2623719;28;20055;-76
2022/09/19 02:18:30;;;;;;;0.75;0.30;;;;;;;7.71;100.00;97669.00;2621252;28;20372;-78
2022/09/19 02:19:51;;;;;;;1.10;0.40;;;;;;;7.62;100.00;97675.34;2622951;28;20059;-77
2022/09/19 02:21:12;;;;;;;0.75;0.40;;;;;;;7.82;100.00;97676.50;2623821;28;20060;-77
2022/09/19 02:22:31;;;;;;;1.65;0.50;;;;;;;7.66;100.00;97681.31;2620627;28;20053;-77
2022/09/19 02:23:50;;;;;;;0.57;0.43;;;;;;;7.65;100.00;97670.94;2622712;28;20052;-76
2022/09/19 02:25:12;;;;;;;0.65;0.52;;;;;;;7.88;100.00;97676.31;2620155;28;20792;-76
2022/09/19 02:26:30;;;;;;;1.10;0.40;;;;;;;7.71;100.00;97679.44;2621625;28;20445;-76
2022/09/19 02:27:55;;;;;;;1.15;0.52;;;;;;;7.67;100.00;97679.56;2623089;28;20601;-78
2022/09/19 02:29:19;;;;;;;3.92;0.38;;;;;;;7.64;100.00;97688.31;2622769;28;20052;-76
2022/09/19 02:30:35;;;;;;;0.30;0.30;;;;;;;7.74;100.00;97681.94;2622947;28;20738;-76
2022/09/19 02:31:54;;;;;;;0.38;0.38;;;;;;;7.85;100.00;97684.22;2623177;28;20493;-76
2022/09/19 02:33:11;;;;;;;0.60;0.30;;;;;;;7.80;100.00;97680.91;2621486;28;20045;-76
2022/09/19 02:34:27;;;;;;;1.25;0.38;;;;;;;7.69;100.00;97682.97;2621322;28;20056;-76
2022/09/19 02:36:05;;;;;;;0.50;0.50;;;;;;;7.75;100.00;97673.22;2620913;28;20048;-81
2022/09/19 02:37:41;;;;;;;0.47;0.40;;;;;;;7.76;100.00;97680.16;2616149;28;20060;-78
2022/09/19 02:38:59;;;;;;;2.72;0.40;;;;;;;7.74;100.00;97678.47;2620791;28;20056;-77
2022/09/19 02:40:27;;;;;;;0.30;0.30;;;;;;;7.78;100.00;97682.72;2619916;28;20060;-77
2022/09/19 02:41:59;;;;;;;0.73;0.40;;;;;;;7.54;100.00;97681.66;2620960;28;20090;-77
2022/09/19 02:43:29;;;;;;;2.05;0.60;;;;;;;7.67;100.00;97680.41;2623225;28;20055;-77
2022/09/19 02:45:00;;;;;;;1.25;0.60;;;;;;;7.63;100.00;97694.41;2621248;28;20486;-78
2022/09/19 02:46:47;;;;;;;0.90;0.55;;;;;;;7.73;100.00;97681.97;2623821;28;20140;-77
2022/09/19 02:48:20;;;;;;;0.82;0.63;;;;;;;7.73;100.00;97685.47;2620176;28;20060;-78
2022/09/19 02:49:47;;;;;;;0.68;0.50;;;;;;;7.68;100.00;97684.72;2623035;28;20336;-76
2022/09/19 02:51:05;;;;;;;0.20;0.20;;;;;;;7.70;100.00;97688.16;2621548;28;20049;-77
2022/09/19 02:52:28;;;;;;;1.85;0.50;;;;;;;7.82;100.00;97694.75;2620128;28;20048;-77
2022/09/19 02:53:49;;;;;;;0.50;0.43;;;;;;;7.88;100.00;97686.75;2621895;28;20052;-77
2022/09/19 02:55:12;;;;;;;0.65;0.40;;;;;;;7.77;100.00;97697.47;2620694;28;20090;-77
2022/09/19 02:56:34;;;;;;;1.13;0.55;;;;;;;7.77;100.00;97692.28;2621089;28;20044;-78
2022/09/19 02:57:54;;;;;;;0.93;0.50;;;;;;;7.73;100.00;97685.47;2622802;28;20047;-76
2022/09/19 02:59:21;;;;;;;0.60;0.60;;;;;;;7.89;100.00;97691.09;2621172;28;20048;-76
2022/09/19 03:00:38;;;;;;;2.15;0.50;;;;;;;7.82;100.00;97688.66;2622064;28;20105;-76
2022/09/19 03:02:02;;;;;;;0.20;0.20;;;;;;;7.68;100.00;97686.47;2620427;28;20139;-76
2022/09/19 03:05:13;;;;;;;0.50;0.50;;;;;;;7.75;100.00;97696.69;2620247;28;20422;-77
2022/09/19 03:06:36;;;;;;;0.80;0.30;;;;;;;7.84;100.00;97689.50;2620237;28;20099;-76
2022/09/19 03:08:00;;;;;;;1.17;0.50;;;;;;;7.76;100.00;97703.59;2620112;28;20728;-76
2022/09/19 03:09:20;;;;;;;0.60;0.50;;;;;;;7.63;100.00;97692.69;2621181;28;20056;-76
2022/09/19 03:10:40;;;;;;;1.02;0.50;;;;;;;7.65;100.00;97695.22;2622992;28;20521;-76
2022/09/19 03:12:10;;;;;;;3.13;0.50;;;;;;;7.71;100.00;97702.03;2621751;28;20102;-76
2022/09/19 03:13:26;;;;;;;0.50;0.50;;;;;;;7.67;100.00;97708.22;2620715;28;20114;-76
2022/09/19 03:14:41;;;;;;;0.85;0.57;;;;;;;7.62;100.00;97705.75;2621373;28;20052;-77
2022/09/19 03:16:00;;;;;;;0.40;0.40;;;;;;;7.72;100.00;97702.00;2620499;28;20102;-76
2022/09/19 03:17:20;;;;;;;2.50;0.63;;;;;;;7.81;100.00;97700.88;2621325;28;20512;-76
2022/09/19 03:18:38;;;;;;;0.63;0.60;;;;;;;7.84;100.00;97702.53;2620463;28;20525;-76
2022/09/19 03:19:53;;;;;;;0.95;0.52;;;;;;;7.75;100.00;97707.09;2621865;28;20129;-77
2022/09/19 03:21:11;;;;;;;1.75;0.43;;;;;;;7.86;100.00;97698.13;2620117;28;20052;-76
2022/09/19 03:22:26;;;;;;;1.25;0.50;;;;;;;7.79;100.00;97705.28;2622846;28;20048;-78
2022/09/19 03:23:47;;;;;;;0.45;0.40;;;;;;;7.76;100.00;97698.38;2622291;28;20060;-76
2022/09/19 03:25:03;;;;;;;0.88;0.55;;;;;;;7.69;100.00;97701.22;2621528;28;20088;-76
2022/09/19 03:26:25;;;;;;;0.60;0.60;;;;;;;7.68;100.00;97692.53;2623334;28;20051;-78
2022/09/19 03:27:41;;;;;;;0.50;0.40;;;;;;;7.77;100.00;97694.03;2621642;28;20104;-76
2022/09/19 03:28:58;;;;;;;0.57;0.50;;;;;;;7.86;100.00;97698.97;2619837;28;20055;-78
2022/09/19 03:30:13;;;;;;;0.75;0.60;;;;;;;7.84;100.00;97692.13;2623337;28;20097;-77
2022/09/19 03:31:29;;;;;;;1.20;0.50;;;;;;;7.94;100.00;97698.75;2620112;28;20056;-77
2022/09/19 03:32:45;;;;;;;0.50;0.40;;;;;;;7.94;100.00;97703.13;2621861;28;20158;-77
2022/09/19 03:34:00;;;;;;;1.60;0.70;;;;;;;7.83;100.00;97703.44;2622839;28;20048;-75
2022/09/19 03:35:17;;;;;;;0.90;0.50;;;;;;;7.93;100.00;97702.25;2623091;28;20060;-75
2022/09/19 03:36:36;;;;;;;0.85;0.60;;;;;;;7.93;100.00;97709.22;2619297;28;20505;-76
2022/09/19 03:37:51;;;;;;;0.90;0.60;;;;;;;7.99;100.00;97707.31;2622876;28;20533;-76
2022/09/19 03:39:07;;;;;;;1.38;0.60;;;;;;;8.02;100.00;97708.94;2622074;28;20052;-75
2022/09/19 03:40:23;;;;;;;1.58;0.70;;;;;;;8.08;100.00;97707.91;2622243;28;20145;-78
2022/09/19 03:41:39;;;;;;;1.23;0.77;;;;;;;7.78;100.00;97714.81;2621926;28;20048;-75
2022/09/19 03:42:55;;;;;;;2.40;0.70;;;;;;;7.96;100.00;97707.41;2621593;28;20051;-79
2022/09/19 03:44:11;;;;;;;1.20;0.60;;;;;;;7.68;100.00;97717.75;2623046;28;20539;-76
2022/09/19 03:45:26;;;;;;;1.52;0.50;;;;;;;8.01;100.00;97710.72;2621141;28;20040;-76
2022/09/19 03:46:46;;;;;;;0.40;0.40;;;;;;;7.76;100.00;97721.84;2622123;28;20049;-76
2022/09/19 03:48:02;;;;;;;2.22;0.57;;;;;;;8.02;100.00;97714.16;2619894;28;20071;-76
2022/09/19 03:49:19;;;;;;;0.52;0.50;;;;;;;8.20;100.00;97711.03;2620885;28;20123;-76
2022/09/19 03:50:34;;;;;;;0.77;0.52;;;;;;;8.09;100.00;97727.88;2619561;28;20052;-76
2022/09/19 03:51:50;;;;;;;0.45;0.43;;;;;;;8.24;100.00;97718.75;2623159;28;21113;-76
2022/09/19 03:53:07;;;;;;;1.25;0.60;;;;;;;8.22;100.00;97723.16;2621024;28;20477;-76
2022/09/19 03:54:22;;;;;;;2.05;0.60;;;;;;;8.34;100.00;97726.22;2619747;28;20044;-76
2022/09/19 03:55:38;;;;;;;1.55;0.60;;;;;;;8.31;100.00;97720.25;2621029;28;20052;-77
2022/09/19 03:56:54;;;;;;;3.63;0.52;;;;;;;8.22;100.00;97721.38;2621550;28;20413;-76
2022/09/19 03:58:10;;;;;;;1.10;0.50;;;;;;;8.14;100.00;97724.22;2620440;28;20068;-76
2022/09/19 03:59:26;;;;;;;2.33;0.60;;;;;;;8.26;100.00;97720.41;2619465;28;20056;-76
2022/09/19 04:00:41;;;;;;;0.82;0.35;;;;;;;8.01;100.00;97728.09;2621183;28;20055;-76
2022/09/19 04:01:58;;;;;;;0.50;0.40;;;;;;;7.79;100.00;97723.50;2619845;28;20044;-75
2022/09/19 04:03:13;;;;;;;1.20;0.45;;;;;;;8.07;100.00;97725.31;2622761;28;20551;-76
2022/09/19 04:04:29;;;;;;;1.00;0.50;;;;;;;8.13;100.00;97724.28;2622554;28;20048;-77
2022/09/19 04:05:45;;;;;;;0.35;0.30;;;;;;;7.88;100.00;97731.06;2619859;28;20491;-77
2022/09/19 04:07:01;;;;;;;0.28;0.28;;;;;;;7.91;100.00;97740.53;2621914;28;20450;-76
2022/09/19 04:08:17;;;;;;;1.27;0.50;;;;;;;7.93;100.00;97735.28;2619340;28;20364;-77
2022/09/19 04:09:34;;;;;;;1.05;0.60;;;;;;;7.89;100.00;97743.22;2620461;28;20051;-75
2022/09/19 04:10:51;;;;;;;0.40;0.40;;;;;;;7.88;100.00;97740.63;2622983;28;20526;-77
2022/09/19 04:12:07;;;;;;;0.70;0.50;;;;;;;7.73;100.00;97732.34;2619256;28;20056;-79
2022/09/19 04:13:22;;;;;;;0.80;0.43;;;;;;;7.82;100.00;97738.19;2621417;28;20524;-77
2022/09/19 04:14:38;;;;;;;1.10;0.50;;;;;;;7.92;100.00;97742.25;2621864;28;20048;-77
2022/09/19 04:15:54;;;;;;;0.93;0.50;;;;;;;7.97;100.00;97737.78;2623264;28;20081;-76
2022/09/19 04:17:09;;;;;;;2.33;0.55;;;;;;;8.13;100.00;97735.56;2623042;28;20516;-76
2022/09/19 04:18:25;;;;;;;1.58;0.57;;;;;;;7.77;100.00;97741.78;2620046;28;20053;-76
2022/09/19 04:19:42;;;;;;;0.47;0.40;;;;;;;7.77;100.00;97735.75;2621200;28;20056;-76
2022/09/19 04:20:58;;;;;;;0.85;0.50;;;;;;;7.83;100.00;97742.53;2623210;28;20131;-76
2022/09/19 04:22:13;;;;;;;0.60;0.47;;;;;;;7.82;100.00;97746.88;2622493;28;20050;-80
2022/09/19 04:23:29;;;;;;;1.30;0.80;;;;;;;7.83;100.00;97745.97;2621826;28;20062;-75
2022/09/19 04:24:44;;;;;;;0.63;0.60;;;;;;;7.64;100.00;97743.03;2621797;28;20414;-77
2022/09/19 04:26:03;;;;;;;1.40;0.60;;;;;;;7.84;100.00;97749.44;2621771;28;20056;-76
2022/09/19 04:27:19;;;;;;;0.55;0.55;;;;;;;7.90;100.00;97749.25;2620026;28;20584;-76
2022/09/19 04:28:37;;;;;;;0.50;0.50;;;;;;;7.96;100.00;97741.28;2622718;28;20052;-76
2022/09/19 04:29:52;;;;;;;2.17;0.50;;;;;;;8.05;100.00;97750.59;2620966;28;20437;-77
2022/09/19 04:31:12;;;;;;;0.50;0.40;;;;;;;8.08;100.00;97747.03;2622225;28;20560;-75
2022/09/19 04:32:28;;;;;;;1.15;0.60;;;;;;;7.98;100.00;97751.66;2620830;28;20044;-75
2022/09/19 04:33:43;;;;;;;5.40;0.68;;;;;;;8.03;100.00;97755.84;2622176;28;20055;-76
2022/09/19 04:34:59;;;;;;;0.40;0.40;;;;;;;7.94;100.00;97750.88;2622891;28;20048;-76
2022/09/19 04:36:16;;;;;;;1.30;0.52;;;;;;;7.94;100.00;97750.88;2622564;28;20094;-77
2022/09/19 04:37:32;;;;;;;0.40;0.35;;;;;;;7.99;100.00;97755.97;2620945;28;20573;-75
2022/09/19 04:38:48;;;;;;;0.77;0.40;;;;;;;8.04;100.00;97746.28;2620032;28;20134;-75
2022/09/19 04:40:03;;;;;;;2.28;0.60;;;;;;;8.11;100.00;97750.41;2618071;28;20045;-76
2022/09/19 04:41:20;;;;;;;0.47;0.47;;;;;;;8.01;100.00;97748.94;2618442;28;20594;-76
2022/09/19 04:42:36;;;;;;;0.63;0.40;;;;;;;8.08;100.00;97747.03;2619602;28;20423;-76
2022/09/19 04:43:52;;;;;;;0.68;0.50;;;;;;;8.11;100.00;97753.00;2621330;28;20040;-76
2022/09/19 04:45:08;;;;;;;0.80;0.50;;;;;;;8.11;100.00;97752.16;2619783;28;20406;-76
2022/09/19 04:46:23;;;;;;;0.50;0.50;;;;;;;8.10;100.00;97759.13;2621867;28;20052;-76
2022/09/19 04:47:39;;;;;;;0.80;0.40;;;;;;;8.08;100.00;97762.66;2622257;28;20113;-76
2022/09/19 04:48:55;;;;;;;0.95;0.50;;;;;;;8.02;100.00;97771.50;2620885;28;20048;-76
2022/09/19 04:50:11;;;;;;;0.63;0.50;;;;;;;8.09;100.00;97764.38;2621504;28;20105;-77
2022/09/19 04:51:30;;;;;;;1.00;0.73;;;;;;;7.86;100.00;97768.50;2623292;28;20048;-76
2022/09/19 04:52:46;;;;;;;0.52;0.52;;;;;;;8.14;100.00;97771.16;2622146;28;20049;-76
2022/09/19 04:54:02;;;;;;;0.60;0.35;;;;;;;7.89;100.00;97771.00;2624538;28;20048;-76
2022/09/19 04:55:17;;;;;;;0.98;0.52;;;;;;;7.96;100.00;97769.97;2623365;28;20052;-76
2022/09/19 04:56:33;;;;;;;0.50;0.50;;;;;;;8.01;100.00;97778.50;2621158;28;20056;-76
2022/09/19 04:57:49;;;;;;;1.02;0.52;;;;;;;8.12;100.00;97780.78;2622925;28;20052;-76
2022/09/19 04:59:04;;;;;;;0.93;0.50;;;;;;;8.30;100.00;97775.91;2622640;28;20076;-76
2022/09/19 05:00:36;;;;;;;1.10;0.60;;;;;;;8.31;100.00;97781.09;2620839;28;20052;-77
2022/09/19 05:01:53;;;;;;;1.35;0.50;;;;;;;8.28;100.00;97782.94;2622778;28;20048;-76
2022/09/19 05:03:12;;;;;;;0.80;0.40;;;;;;;8.12;100.00;97786.00;2622902;28;20052;-76
2022/09/19 05:04:27;;;;;;;0.57;0.50;;;;;;;8.22;100.00;97783.97;2621701;28;20367;-76
2022/09/19 05:05:45;;;;;;;0.95;0.55;;;;;;;8.22;100.00;97781.38;2622987;28;20051;-76
2022/09/19 05:07:01;;;;;;;1.65;0.50;;;;;;;8.23;100.00;97792.66;2622001;28;20040;-76
2022/09/19 05:08:24;;;;;;;0.80;0.60;;;;;;;8.39;100.00;97790.47;2621511;28;20048;-77
2022/09/19 05:09:42;;;;;;;2.35;0.50;;;;;;;8.43;100.00;97792.06;2621201;28;20044;-75
2022/09/19 05:11:05;;;;;;;1.00;0.50;;;;;;;8.52;100.00;97791.84;2623286;28;20076;-76
2022/09/19 05:12:21;;;;;;;0.60;0.50;;;;;;;8.30;100.00;97799.41;2622443;28;20428;-77
2022/09/19 05:13:38;;;;;;;0.50;0.50;;;;;;;8.53;100.00;97803.13;2621244;28;20349;-76
2022/09/19 05:14:55;;;;;;;1.77;0.55;;;;;;;8.36;100.00;97803.59;2621914;28;20054;-76
2022/09/19 05:16:13;;;;;;;1.33;0.50;;;;;;;8.29;100.00;97802.91;2622253;28;20090;-77
2022/09/19 05:17:30;;;;;;;1.30;0.60;;;;;;;8.42;100.00;97804.25;2622445;28;20399;-77
2022/09/19 05:18:46;;;;;;;1.25;0.50;;;;;;;8.41;100.00;97804.31;2620869;28;20051;-78
2022/09/19 05:20:02;;;;;;;1.38;0.60;;;;;;;8.57;100.00;97800.38;2621056;28;20044;-77
2022/09/19 05:21:18;;;;;;;0.75;0.70;;;;;;;8.27;100.00;97813.41;2621715;28;20041;-77
2022/09/19 05:22:33;;;;;;;1.15;0.50;;;;;;;8.45;100.00;97813.75;2621952;28;20047;-77
2022/09/19 05:23:49;;;;;;;0.98;0.60;;;;;;;8.50;100.00;97817.09;2621904;28;20102;-78
2022/09/19 05:25:05;;;;;;;4.22;0.70;;;;;;;8.40;100.00;97819.09;2621809;28;20071;-77
2022/09/19 05:26:20;;;;;;;3.53;1.10;;;;;;;8.55;100.00;97828.28;2621101;28;20055;-76
2022/09/19 05:27:36;;;;;;;2.17;1.10;;;;;;;8.63;100.00;97825.44;2622379;28;20135;-77
2022/09/19 05:28:52;;;;;;;3.38;1.10;;;;;;;8.56;100.00;97832.59;2621291;28;20059;-77
2022/09/19 05:30:10;;;;;;;2.72;1.05;;;;;;;8.54;100.00;97834.41;2622081;28;20055;-77
2022/09/19 05:31:25;;;;;;;3.72;1.02;;;;;;;8.57;100.00;97839.50;2622860;28;20875;-76
2022/09/19 05:32:44;;;;;;;3.95;0.82;;;;;;;8.62;100.00;97837.63;2621493;28;20062;-76
2022/09/19 05:34:00;;;;;;;1.98;1.00;;;;;;;8.70;100.00;97833.94;2621568;28;20057;-77
2022/09/19 05:35:17;;;;;;;1.70;1.05;;;;;;;8.55;100.00;97846.53;2622163;28;20078;-77
2022/09/19 05:36:32;;;;;;;0.80;0.70;;;;;;;8.64;100.00;97842.78;2621102;28;20524;-80
2022/09/19 05:37:51;;;;;;;1.30;0.63;;;;;;;8.63;100.00;97841.09;2621367;28;20052;-77
2022/09/19 05:39:07;;;;;;;1.77;0.60;;;;;;;8.67;100.00;97842.69;2621994;28;20608;-77
2022/09/19 05:40:25;;;;;;;4.40;0.85;;;;;;;8.51;100.00;97844.91;2621892;28;20047;-77
2022/09/19 05:41:40;;;;;;;0.30;0.30;;;;;;;8.41;100.00;97849.50;2622251;28;20044;-76
2022/09/19 05:43:02;;;;;;;0.40;0.40;;;;;;;8.31;100.00;97848.03;2622012;28;20095;-77
2022/09/19 05:44:18;;;;;;;2.13;0.47;;;;;;;8.46;100.00;97851.97;2621554;28;20044;-76
2022/09/19 05:45:34;;;;;;;1.10;0.50;;;;;;;8.54;100.00;97849.19;2622085;28;20407;-77
2022/09/19 05:46:52;;;;;;;1.42;0.68;;;;;;;8.55;100.00;97851.75;2620200;28;20050;-77
2022/09/19 05:48:08;;;;;;;2.38;0.90;;;;;;;8.46;100.00;97852.84;2621231;28;20036;-77
2022/09/19 05:49:23;;;;;;;3.20;0.90;;;;;;;8.56;100.00;97849.97;2621490;28;20036;-77
2022/09/19 05:50:42;;;;;;;1.52;0.75;;;;;;;8.55;100.00;97856.09;2622111;28;20044;-77
2022/09/19 05:53:51;;;;;;;6.25;1.25;;;;;;;8.64;100.00;97861.06;2621155;28;20093;-77
2022/09/19 05:53:52;;;;;;;8.63;1.88;;;;;;;8.53;100.00;97856.16;2622177;28;20076;-77
2022/09/19 05:55:08;;;;;;;3.75;1.13;;;;;;;8.52;100.00;97864.91;2621776;28;20036;-77
2022/09/19 05:56:23;;;;;;;5.63;1.30;;;;;;;8.68;100.00;97869.66;2622289;28;20063;-77
2022/09/19 05:57:40;;;;;;;2.35;0.80;;;;;;;8.61;100.00;97867.22;2621568;28;20048;-77
2022/09/19 05:58:56;;;;;;;1.05;0.70;;;;;;;8.62;100.00;97873.31;2622112;28;20059;-76
2022/09/19 06:00:12;;;;;;;1.33;0.60;;;;;;;8.38;100.00;97869.59;2621871;28;20044;-76
2022/09/19 06:01:28;;;;;;;0.70;0.60;;;;;;;8.58;100.00;97877.75;2622517;28;20057;-76
2022/09/19 06:02:43;;;;;;;3.08;0.60;;;;;;;8.65;100.00;97880.16;2620838;28;20052;-76
2022/09/19 06:04:01;;;;;;;0.80;0.50;;;;;;;8.55;100.00;97874.38;2621481;28;20602;-78
2022/09/19 06:05:17;;;;;;;0.90;0.60;;;;;;;8.60;100.00;97882.94;2622839;28;20131;-76
2022/09/19 06:06:35;;;;;;;0.68;0.60;;;;;;;8.47;100.00;97891.09;2621642;28;20216;-78
2022/09/19 06:07:51;;;;;;;0.60;0.60;;;;;;;8.43;100.00;97886.00;2623010;28;20052;-77
2022/09/19 06:09:07;;;;;;;0.40;0.40;;;;;;;8.73;100.00;97884.28;2622407;28;20425;-78
2022/09/19 06:10:24;;;;;;;2.33;0.60;;;;;;;8.79;100.00;97893.66;2621236;28;20047;-77
2022/09/19 06:11:40;;;;;;;0.40;0.40;;;;;;;8.89;100.00;97887.28;2620613;28;20625;-77
2022/09/19 06:12:56;;;;;;;1.55;0.32;;;;;;;8.97;100.00;97888.81;2622749;28;20794;-76
2022/09/19 06:14:15;;;;;;;0.40;0.40;;;;;;;8.95;100.00;97898.47;2622610;28;20048;-76
2022/09/19 06:15:30;;;;;;;1.70;0.30;;;;;;;8.92;100.00;97902.00;2621071;28;20560;-76
2022/09/19 06:16:46;;;;;;;0.82;0.47;;;;;;;8.82;100.00;97901.44;2622260;28;20128;-76
2022/09/19 06:18:01;;;;;;;0.40;0.30;;;;;;;8.94;100.00;97902.81;2622628;28;20045;-76
2022/09/19 06:19:17;;;;;;;0.43;0.43;;;;;;;8.66;100.00;97906.22;2623214;28;20075;-76
2022/09/19 06:20:33;;;;;;;0.38;0.38;;;;;;;8.93;100.00;97908.94;2623793;28;20075;-76